Time;durP1;ratioP1;P1;durP2;ratioP2;P2;SDS_P1;SDS_P2;PMS_P1;PMS_P2;Temp;Humidity;BMP_temperature;BMP_pressure;BME280_temperature;BME280_humidity;BME280_pressure;Samples;Min_cycle;Max_cycle;Signal;HPM_P1;HPM_P2
2023/03/28 00:00:49;;;;;;;;;;;25.90;99.90;;;;;;4899768;29;19923;-54
2023/03/28 00:03:17;;;;;;;;;;;25.90;99.90;;;;;;4899138;29;19966;-58
2023/03/28 00:05:44;;;;;;;;;;;25.90;99.90;;;;;;4908788;29;19907;-58
2023/03/28 00:08:10;;;;;;;;;;;25.90;99.90;;;;;;4917738;29;20257;-58
2023/03/28 00:10:36;;;;;;;;;;;25.80;99.90;;;;;;4916542;29;19907;-58
2023/03/28 00:13:02;;;;;;;;;;;25.80;99.90;;;;;;4900542;29;19907;-55
2023/03/28 00:15:27;;;;;;;;;;;25.80;99.90;;;;;;4899025;29;19911;-57
2023/03/28 00:17:53;;;;;;;;;;;25.80;99.90;;;;;;4898723;29;19964;-58
2023/03/28 00:20:18;;;;;;;;;;;25.80;99.90;;;;;;4894388;29;19907;-56
2023/03/28 00:22:44;;;;;;;;;;;25.80;99.90;;;;;;4913300;29;19915;-57
2023/03/28 00:25:10;;;;;;;;;;;25.80;99.90;;;;;;4917550;29;19914;-58
2023/03/28 00:27:36;;;;;;;;;;;25.80;99.90;;;;;;4917314;29;20009;-54
2023/03/28 00:30:02;;;;;;;;;;;25.80;99.90;;;;;;4912806;29;19911;-55
2023/03/28 00:32:28;;;;;;;;;;;25.80;99.90;;;;;;4907178;29;20009;-58
2023/03/28 00:34:55;;;;;;;;;;;25.80;99.90;;;;;;4915114;29;20387;-59
2023/03/28 00:37:21;;;;;;;;;;;25.80;99.90;;;;;;4914733;29;20336;-57
2023/03/28 00:39:50;;;;;;;;;;;25.80;99.90;;;;;;4905253;29;19907;-56
2023/03/28 00:42:16;;;;;;;;;;;25.80;99.90;;;;;;4915191;29;19970;-59
2023/03/28 00:44:47;;;;;;;;;;;25.70;99.90;;;;;;4915987;29;19910;-58
2023/03/28 00:47:24;;;;;;;;;;;25.80;99.90;;;;;;4916109;29;19911;-58
2023/03/28 00:49:51;;;;;;;;;;;25.70;99.90;;;;;;4914863;29;19911;-56
2023/03/28 00:52:20;;;;;;;;;;;25.70;99.90;;;;;;4916541;29;20336;-56
2023/03/28 00:54:45;;;;;;;;;;;25.70;99.90;;;;;;4917007;29;20010;-56
2023/03/28 00:57:12;;;;;;;;;;;25.70;99.90;;;;;;4917168;29;20026;-56
2023/03/28 00:59:38;;;;;;;;;;;25.70;99.90;;;;;;4932348;23;19927;-47
2023/03/28 01:02:04;;;;;;;;;;;25.70;99.90;;;;;;4935690;29;20343;-48
2023/03/28 01:04:35;;;;;;;;;;;25.60;99.90;;;;;;4935693;29;19911;-48
2023/03/28 01:07:01;;;;;;;;;;;25.60;99.90;;;;;;4935763;29;19907;-48
2023/03/28 01:09:27;;;;;;;;;;;25.70;99.90;;;;;;4935651;29;19906;-49
2023/03/28 01:11:54;;;;;;;;;;;25.60;99.90;;;;;;4935708;29;19917;-47
2023/03/28 01:14:21;;;;;;;;;;;25.60;99.90;;;;;;4935842;29;19990;-47
2023/03/28 01:16:48;;;;;;;;;;;25.60;99.90;;;;;;4935390;29;19907;-48
2023/03/28 01:19:26;;;;;;;;;;;25.60;99.90;;;;;;4950161;29;20384;-48
2023/03/28 01:22:05;;;;;;;;;;;25.60;99.90;;;;;;4935797;29;20005;-48
2023/03/28 01:24:34;;;;;;;;;;;25.50;99.90;;;;;;4927792;29;19918;-48
2023/03/28 01:27:03;;;;;;;;;;;25.50;99.90;;;;;;4930139;29;19910;-47
2023/03/28 01:29:32;;;;;;;;;;;25.50;99.90;;;;;;4935450;29;20287;-48
2023/03/28 01:32:16;;;;;;;;;;;25.50;99.90;;;;;;4935516;29;20283;-47
2023/03/28 01:35:00;;;;;;;;;;;25.50;99.90;;;;;;4935472;29;19914;-48
2023/03/28 01:37:44;;;;;;;;;;;25.40;99.90;;;;;;4935424;29;19907;-47
2023/03/28 01:40:10;;;;;;;;;;;25.40;99.90;;;;;;4935492;29;19907;-48
2023/03/28 01:42:41;;;;;;;;;;;25.40;99.90;;;;;;4935405;29;19961;-48
2023/03/28 01:45:25;;;;;;;;;;;25.40;99.90;;;;;;4935335;29;19907;-48
2023/03/28 01:47:54;;;;;;;;;;;25.40;99.90;;;;;;4938520;28;19923;-47
2023/03/28 01:50:31;;;;;;;;;;;25.40;99.90;;;;;;4935225;29;19914;-47
2023/03/28 01:53:15;;;;;;;;;;;25.40;99.90;;;;;;4935331;29;19994;-47
2023/03/28 01:55:44;;;;;;;;;;;25.40;99.90;;;;;;4935158;29;19906;-47
2023/03/28 01:58:19;;;;;;;;;;;25.30;99.90;;;;;;4934590;29;19907;-48
2023/03/28 02:00:53;;;;;;;;;;;25.30;99.90;;;;;;4948847;23;20400;-58
2023/03/28 02:03:38;;;;;;;;;;;25.30;99.90;;;;;;4938066;29;20340;-59
2023/03/28 02:06:06;;;;;;;;;;;25.30;99.90;;;;;;4939572;29;20351;-58
2023/03/28 02:08:33;;;;;;;;;;;25.30;99.90;;;;;;4937945;29;19907;-56
2023/03/28 02:10:58;;;;;;;;;;;25.30;99.90;;;;;;4939124;29;19913;-56
2023/03/28 02:13:32;;;;;;;;;;;25.20;99.90;;;;;;4939255;29;19911;-56
2023/03/28 02:15:59;;;;;;;;;;;25.20;99.90;;;;;;4939432;29;20271;-57
2023/03/28 02:18:28;;;;;;;;;;;25.20;99.90;;;;;;4939170;29;19914;-57
2023/03/28 02:20:57;;;;;;;;;;;25.20;99.90;;;;;;4939021;29;19910;-56
2023/03/28 02:23:42;;;;;;;;;;;25.20;99.90;;;;;;4938874;29;19915;-57
2023/03/28 02:26:08;;;;;;;;;;;25.10;99.90;;;;;;4969268;28;19906;-57
2023/03/28 02:28:35;;;;;;;;;;;25.10;99.90;;;;;;4938949;29;19918;-57
2023/03/28 02:31:01;;;;;;;;;;;25.10;99.90;;;;;;4938821;29;20359;-57
2023/03/28 02:33:36;;;;;;;;;;;25.10;99.90;;;;;;4938719;29;19942;-57
2023/03/28 02:36:14;;;;;;;;;;;25.10;99.90;;;;;;4938636;29;19914;-59
2023/03/28 02:38:39;;;;;;;;;;;25.10;99.90;;;;;;4938993;29;19907;-57
2023/03/28 02:41:14;;;;;;;;;;;25.10;99.90;;;;;;4938577;29;19965;-57
2023/03/28 02:44:00;;;;;;;;;;;25.10;99.90;;;;;;4938915;29;19911;-58
2023/03/28 02:46:38;;;;;;;;;;;25.00;99.90;;;;;;4908790;29;19929;-59
2023/03/28 02:49:22;;;;;;;;;;;25.00;99.90;;;;;;4938362;29;19907;-58
2023/03/28 02:51:50;;;;;;;;;;;25.00;99.90;;;;;;4938426;29;20343;-58
2023/03/28 02:54:21;;;;;;;;;;;25.00;99.90;;;;;;4938308;29;19913;-59
2023/03/28 02:56:59;;;;;;;;;;;25.00;99.90;;;;;;4938260;29;19953;-59
2023/03/28 02:59:34;;;;;;;;;;;25.00;99.90;;;;;;4938823;29;19965;-58
2023/03/28 03:02:01;;;;;;;;;;;25.00;99.90;;;;;;4938180;29;19914;-60
2023/03/28 03:04:26;;;;;;;;;;;25.00;99.90;;;;;;4938278;29;19913;-58
2023/03/28 03:06:52;;;;;;;;;;;25.00;99.90;;;;;;4938228;29;19907;-58
2023/03/28 03:09:17;;;;;;;;;;;24.90;99.90;;;;;;4937434;29;19906;-58
2023/03/28 03:11:43;;;;;;;;;;;24.90;99.90;;;;;;4937993;29;19997;-58
2023/03/28 03:14:09;;;;;;;;;;;24.90;99.90;;;;;;4938061;29;20004;-59
2023/03/28 03:16:37;;;;;;;;;;;24.90;99.90;;;;;;4938078;29;19914;-58
2023/03/28 03:19:03;;;;;;;;;;;24.90;99.90;;;;;;4937958;29;19989;-60
2023/03/28 03:21:28;;;;;;;;;;;24.90;99.90;;;;;;4937863;29;19958;-57
2023/03/28 03:23:54;;;;;;;;;;;24.90;99.90;;;;;;4937870;29;19966;-58
2023/03/28 03:26:21;;;;;;;;;;;24.80;99.90;;;;;;4937930;29;19994;-58
2023/03/28 03:28:48;;;;;;;;;;;24.80;99.90;;;;;;4937945;29;19993;-57
2023/03/28 03:31:14;;;;;;;;;;;24.80;99.90;;;;;;4937920;29;19907;-59
2023/03/28 03:33:41;;;;;;;;;;;24.80;99.90;;;;;;4937573;29;20422;-56
2023/03/28 03:36:08;;;;;;;;;;;24.80;99.90;;;;;;4937671;29;19906;-57
2023/03/28 03:38:34;;;;;;;;;;;24.80;99.90;;;;;;4937601;29;19910;-58
2023/03/28 03:41:00;;;;;;;;;;;24.70;99.90;;;;;;4937583;29;19958;-58
2023/03/28 03:43:26;;;;;;;;;;;24.70;99.90;;;;;;4937502;29;20375;-58
2023/03/28 03:45:52;;;;;;;;;;;24.70;99.90;;;;;;4937470;29;19962;-58
2023/03/28 03:48:18;;;;;;;;;;;24.70;99.90;;;;;;4932586;29;20347;-59
2023/03/28 03:50:43;;;;;;;;;;;24.70;99.90;;;;;;4936692;29;19946;-58
2023/03/28 03:53:09;;;;;;;;;;;24.70;99.90;;;;;;4936208;29;19962;-59
2023/03/28 03:55:37;;;;;;;;;;;24.70;99.90;;;;;;4937299;29;20394;-59
2023/03/28 03:58:02;;;;;;;;;;;24.70;99.90;;;;;;4924916;29;20428;-58
2023/03/28 04:00:31;;;;;;;;;;;24.70;99.90;;;;;;4930102;29;19918;-59
2023/03/28 04:02:56;;;;;;;;;;;24.70;99.90;;;;;;4935387;29;19922;-59
2023/03/28 04:05:22;;;;;;;;;;;24.70;99.90;;;;;;4936989;29;19907;-59
2023/03/28 04:07:49;;;;;;;;;;;24.70;99.90;;;;;;4936950;29;19906;-57
2023/03/28 04:10:14;;;;;;;;;;;24.60;99.90;;;;;;4936949;29;19954;-57
2023/03/28 04:12:40;;;;;;;;;;;24.60;99.90;;;;;;4936776;29;19906;-58
2023/03/28 04:15:06;;;;;;;;;;;24.60;99.90;;;;;;4936652;29;19954;-54
2023/03/28 04:17:33;;;;;;;;;;;24.70;99.90;;;;;;4936585;29;19993;-59
2023/03/28 04:20:00;;;;;;;;;;;24.60;99.90;;;;;;4936716;29;20352;-60
2023/03/28 04:22:29;;;;;;;;;;;24.60;99.90;;;;;;4935172;29;20399;-58
2023/03/28 04:24:57;;;;;;;;;;;24.60;99.90;;;;;;4936489;29;19954;-58
2023/03/28 04:27:28;;;;;;;;;;;24.60;99.90;;;;;;4936411;29;19907;-58
2023/03/28 04:29:54;;;;;;;;;;;24.60;99.90;;;;;;4936516;29;19966;-59
2023/03/28 04:32:20;;;;;;;;;;;24.60;99.90;;;;;;4936397;29;19910;-59
2023/03/28 04:34:48;;;;;;;;;;;24.50;99.90;;;;;;4936248;29;20410;-57
2023/03/28 04:37:14;;;;;;;;;;;24.50;99.90;;;;;;4936472;29;19907;-58
2023/03/28 04:39:40;;;;;;;;;;;24.50;99.90;;;;;;4950979;29;19907;-58
2023/03/28 04:42:07;;;;;;;;;;;24.50;99.90;;;;;;4950785;29;19914;-57
2023/03/28 04:44:32;;;;;;;;;;;24.50;99.90;;;;;;4936006;29;19907;-57
2023/03/28 04:46:58;;;;;;;;;;;24.50;99.90;;;;;;4951002;29;20009;-57
2023/03/28 04:49:24;;;;;;;;;;;24.50;99.90;;;;;;4935937;29;19907;-58
2023/03/28 04:51:50;;;;;;;;;;;24.50;99.90;;;;;;4936244;29;19907;-58
2023/03/28 04:54:16;;;;;;;;;;;24.50;99.90;;;;;;4935804;29;19907;-58
2023/03/28 04:56:44;;;;;;;;;;;24.50;99.90;;;;;;4935896;29;20592;-57
2023/03/28 04:59:13;;;;;;;;;;;24.50;99.90;;;;;;4935793;29;19930;-57
2023/03/28 05:01:39;;;;;;;;;;;24.50;99.90;;;;;;4921774;29;20272;-58
2023/03/28 05:04:05;;;;;;;;;;;24.50;99.90;;;;;;4935875;29;19954;-59
2023/03/28 05:06:33;;;;;;;;;;;24.50;99.90;;;;;;4935686;29;19923;-58
2023/03/28 05:08:59;;;;;;;;;;;24.50;99.90;;;;;;4935441;29;19991;-58
2023/03/28 05:11:25;;;;;;;;;;;24.40;99.90;;;;;;4935841;29;19950;-57
2023/03/28 05:13:51;;;;;;;;;;;24.40;99.90;;;;;;4934681;29;19964;-58
2023/03/28 05:16:16;;;;;;;;;;;24.40;99.90;;;;;;4935545;29;19913;-57
2023/03/28 05:18:42;;;;;;;;;;;24.40;99.90;;;;;;4935618;29;19907;-57
2023/03/28 05:21:07;;;;;;;;;;;24.40;99.90;;;;;;4935463;29;19906;-57
2023/03/28 05:23:33;;;;;;;;;;;24.40;99.90;;;;;;4935448;29;20002;-57
2023/03/28 05:25:59;;;;;;;;;;;24.40;99.90;;;;;;4935337;29;19961;-58
2023/03/28 05:28:24;;;;;;;;;;;24.40;99.90;;;;;;4935285;29;19907;-58
2023/03/28 05:30:50;;;;;;;;;;;24.40;99.90;;;;;;4950493;29;19961;-57
2023/03/28 05:33:16;;;;;;;;;;;24.40;99.90;;;;;;4934786;29;19910;-56
2023/03/28 05:35:41;;;;;;;;;;;24.40;99.90;;;;;;4935187;29;19907;-57
2023/03/28 05:38:07;;;;;;;;;;;24.40;99.90;;;;;;4935392;29;19906;-57
2023/03/28 05:40:33;;;;;;;;;;;24.30;99.90;;;;;;4935135;29;19911;-57
2023/03/28 05:42:58;;;;;;;;;;;24.30;99.90;;;;;;4935172;29;20371;-56
2023/03/28 05:45:24;;;;;;;;;;;24.30;99.90;;;;;;4935212;29;19958;-56
2023/03/28 05:47:51;;;;;;;;;;;24.30;99.90;;;;;;4935347;29;20005;-56
2023/03/28 05:50:16;;;;;;;;;;;24.30;99.90;;;;;;4935008;29;19997;-59
2023/03/28 05:52:42;;;;;;;;;;;24.30;99.90;;;;;;4935306;29;19941;-56
2023/03/28 05:55:08;;;;;;;;;;;24.30;99.90;;;;;;4935139;29;19922;-54
2023/03/28 05:57:34;;;;;;;;;;;24.30;99.90;;;;;;4965905;28;19960;-56
2023/03/28 06:00:00;;;;;;;;;;;24.30;99.90;;;;;;4935047;29;19921;-56
2023/03/28 06:02:28;;;;;;;;;;;24.30;99.90;;;;;;4934981;29;19958;-55
2023/03/28 06:04:53;;;;;;;;;;;24.30;99.90;;;;;;4935353;29;19910;-55
2023/03/28 06:07:20;;;;;;;;;;;24.20;99.90;;;;;;4935107;29;19914;-55
2023/03/28 06:09:45;;;;;;;;;;;24.30;99.90;;;;;;4935166;29;19918;-55
2023/03/28 06:12:11;;;;;;;;;;;24.20;99.90;;;;;;4934993;29;19907;-55
2023/03/28 06:14:36;;;;;;;;;;;24.30;99.90;;;;;;4934993;29;19994;-56
2023/03/28 06:17:02;;;;;;;;;;;24.20;99.90;;;;;;4934852;29;19914;-57
2023/03/28 06:19:28;;;;;;;;;;;24.20;99.90;;;;;;4935171;29;19906;-57
2023/03/28 06:21:54;;;;;;;;;;;24.20;99.90;;;;;;4934872;29;19919;-56
2023/03/28 06:24:19;;;;;;;;;;;24.20;99.90;;;;;;4922112;29;19907;-56
2023/03/28 06:26:45;;;;;;;;;;;24.20;99.90;;;;;;4934848;29;19997;-57
2023/03/28 06:29:11;;;;;;;;;;;24.20;99.90;;;;;;4934879;29;19911;-57
2023/03/28 06:31:37;;;;;;;;;;;24.20;99.90;;;;;;4934814;29;19907;-56
2023/03/28 06:34:02;;;;;;;;;;;24.20;99.90;;;;;;4934897;29;19915;-57
2023/03/28 06:36:28;;;;;;;;;;;24.20;99.90;;;;;;4934774;29;20323;-55
2023/03/28 06:38:54;;;;;;;;;;;24.20;99.90;;;;;;4934672;29;19914;-55
2023/03/28 06:41:20;;;;;;;;;;;24.20;99.90;;;;;;4934732;29;19913;-56
2023/03/28 06:43:45;;;;;;;;;;;24.20;99.90;;;;;;4934729;29;20367;-56
2023/03/28 06:46:12;;;;;;;;;;;24.10;99.90;;;;;;4953071;29;19913;-57
2023/03/28 06:48:38;;;;;;;;;;;24.20;99.90;;;;;;4938267;29;19906;-57
2023/03/28 06:51:04;;;;;;;;;;;24.10;99.90;;;;;;4938186;29;19907;-58
2023/03/28 06:53:29;;;;;;;;;;;24.10;99.90;;;;;;4938146;29;19955;-58
2023/03/28 06:55:55;;;;;;;;;;;24.10;99.90;;;;;;4938216;29;20359;-59
2023/03/28 06:58:21;;;;;;;;;;;24.10;99.90;;;;;;4938056;29;19906;-58
2023/03/28 07:00:47;;;;;;;;;;;24.10;99.90;;;;;;4937857;29;19942;-58
2023/03/28 07:03:13;;;;;;;;;;;24.10;99.90;;;;;;4938180;29;19915;-57
2023/03/28 07:05:39;;;;;;;;;;;24.20;99.90;;;;;;4937918;29;20275;-57
2023/03/28 07:08:08;;;;;;;;;;;24.20;99.90;;;;;;4938134;29;19914;-57
2023/03/28 07:10:35;;;;;;;;;;;24.10;99.90;;;;;;4935469;29;20279;-57
2023/03/28 07:13:00;;;;;;;;;;;24.10;99.90;;;;;;4937787;29;19907;-57
2023/03/28 07:15:26;;;;;;;;;;;24.10;99.90;;;;;;4937916;29;19907;-57
2023/03/28 07:17:52;;;;;;;;;;;24.10;99.90;;;;;;4937978;29;20387;-59
2023/03/28 07:20:18;;;;;;;;;;;24.20;99.90;;;;;;4952496;29;19911;-60
2023/03/28 07:22:44;;;;;;;;;;;24.20;99.90;;;;;;4937585;29;19926;-59
2023/03/28 07:25:09;;;;;;;;;;;24.20;99.90;;;;;;4937286;29;19919;-59
2023/03/28 07:27:35;;;;;;;;;;;24.20;99.90;;;;;;4937328;29;19950;-59
2023/03/28 07:30:01;;;;;;;;;;;24.20;99.90;;;;;;4937302;29;19991;-60
2023/03/28 07:32:26;;;;;;;;;;;24.20;99.90;;;;;;4937827;29;19954;-55
2023/03/28 07:34:52;;;;;;;;;;;24.20;99.90;;;;;;4952205;29;19907;-55
2023/03/28 07:37:18;;;;;;;;;;;24.30;99.90;;;;;;4951964;29;19930;-56
2023/03/28 07:39:43;;;;;;;;;;;24.30;99.90;;;;;;4937640;29;20034;-55
2023/03/28 07:42:09;;;;;;;;;;;24.30;99.90;;;;;;4937491;29;19938;-55
2023/03/28 07:44:35;;;;;;;;;;;24.30;99.90;;;;;;4968123;28;20279;-54
2023/03/28 07:47:01;;;;;;;;;;;24.30;99.90;;;;;;4932467;29;19911;-54
2023/03/28 07:49:26;;;;;;;;;;;24.30;99.90;;;;;;4919783;29;19915;-54
2023/03/28 07:51:52;;;;;;;;;;;24.30;99.90;;;;;;4937167;29;19906;-54
2023/03/28 07:54:18;;;;;;;;;;;24.30;99.90;;;;;;4936708;29;19910;-53
2023/03/28 07:56:44;;;;;;;;;;;24.30;99.90;;;;;;4936548;29;19911;-52
2023/03/28 07:59:12;;;;;;;;;;;24.30;99.90;;;;;;4936768;29;20065;-53
2023/03/28 08:01:42;;;;;;;;;;;24.30;99.90;;;;;;4936970;29;19915;-54
2023/03/28 08:04:08;;;;;;;;;;;24.30;99.90;;;;;;4936968;29;19942;-54
2023/03/28 08:06:37;;;;;;;;;;;24.30;99.90;;;;;;4936793;29;19922;-54
2023/03/28 08:09:07;;;;;;;;;;;24.40;99.90;;;;;;4936773;29;20038;-56
2023/03/28 08:11:33;;;;;;;;;;;24.30;99.90;;;;;;4936836;29;19906;-49
2023/03/28 08:14:03;;;;;;;;;;;24.30;99.90;;;;;;4936667;29;19918;-55
2023/03/28 08:16:28;;;;;;;;;;;24.30;99.90;;;;;;4937013;29;19911;-56
2023/03/28 08:18:55;;;;;;;;;;;24.30;99.90;;;;;;4936575;29;19913;-56
2023/03/28 08:21:20;;;;;;;;;;;24.30;99.90;;;;;;4936659;29;19907;-57
2023/03/28 08:23:46;;;;;;;;;;;24.30;99.90;;;;;;4936413;29;19981;-57
2023/03/28 08:26:12;;;;;;;;;;;24.30;99.90;;;;;;4936183;29;19918;-53
2023/03/28 08:28:38;;;;;;;;;;;24.30;99.90;;;;;;4936530;29;19903;-54
2023/03/28 08:31:13;;;;;;;;;;;24.30;99.90;;;;;;4936728;29;19966;-55
2023/03/28 08:33:47;;;;;;;;;;;24.30;99.90;;;;;;4936271;29;19911;-54
2023/03/28 08:36:13;;;;;;;;;;;24.30;99.90;;;;;;4936332;29;20356;-53
2023/03/28 08:38:42;;;;;;;;;;;24.30;99.90;;;;;;4936214;29;20493;-54
2023/03/28 08:41:08;;;;;;;;;;;24.30;99.90;;;;;;4966777;28;19907;-58
2023/03/28 08:43:57;;;;;;;;;;;24.40;99.90;;;;;;4936099;29;19922;-56
2023/03/28 08:46:24;;;;;;;;;;;24.40;99.90;;;;;;4936008;29;20319;-57
2023/03/28 08:48:51;;;;;;;;;;;24.40;99.90;;;;;;4936146;29;20418;-56
2023/03/28 08:51:37;;;;;;;;;;;24.40;99.90;;;;;;4951011;29;20318;-56
2023/03/28 08:54:12;;;;;;;;;;;24.40;99.90;;;;;;4936346;29;19906;-56
2023/03/28 08:56:58;;;;;;;;;;;24.40;99.90;;;;;;4935827;29;20372;-57
2023/03/28 09:00:07;;;;;;;;;;;24.50;99.90;;;;;;4935393;29;19925;-57
2023/03/28 09:02:33;;;;;;;;;;;24.50;99.90;;;;;;4915028;29;19930;-58
2023/03/28 09:04:59;;;;;;;;;;;24.50;99.90;;;;;;4914826;29;19911;-58
2023/03/28 09:07:37;;;;;;;;;;;24.50;99.90;;;;;;4920063;29;19910;-58
2023/03/28 09:10:18;;;;;;;;;;;24.50;99.90;;;;;;4935941;29;19982;-57
2023/03/28 09:13:02;;;;;;;;;;;24.50;99.90;;;;;;4950376;29;20103;-58
2023/03/28 09:15:33;;;;;;;;;;;24.50;99.90;;;;;;4935692;29;20287;-57
2023/03/28 09:18:05;;;;;;;;;;;24.50;99.90;;;;;;4935651;29;19906;-57
2023/03/28 09:20:35;;;;;;;;;;;24.50;99.90;;;;;;4935589;29;19989;-57
2023/03/28 09:23:01;;;;;;;;;;;24.60;99.90;;;;;;4935723;29;19915;-57
2023/03/28 09:25:38;;;;;;;;;;;24.50;99.90;;;;;;4935503;29;19954;-56
2023/03/28 09:28:22;;;;;;;;;;;24.60;99.90;;;;;;4935807;29;19910;-57
2023/03/28 09:30:49;;;;;;;;;;;24.60;99.90;;;;;;4935204;29;20463;-57
2023/03/28 09:33:17;;;;;;;;;;;24.60;99.90;;;;;;4935482;29;20366;-58
2023/03/28 09:35:43;;;;;;;;;;;24.60;99.90;;;;;;4935532;29;20264;-56
2023/03/28 09:38:15;;;;;;;;;;;24.60;99.90;;;;;;4935464;29;20278;-59
2023/03/28 09:40:45;;;;;;;;;;;24.60;99.90;;;;;;4935188;29;19906;-58
2023/03/28 09:43:23;;;;;;;;;;;24.60;99.90;;;;;;4935104;29;19914;-56
2023/03/28 09:45:52;;;;;;;;;;;24.70;99.90;;;;;;4935121;29;19914;-58
2023/03/28 09:48:20;;;;;;;;;;;24.70;99.90;;;;;;4935369;29;19913;-57
2023/03/28 09:50:46;;;;;;;;;;;24.70;99.90;;;;;;4935045;29;19914;-57
2023/03/28 09:53:23;;;;;;;;;;;24.70;99.90;;;;;;4935153;29;19906;-58
2023/03/28 09:55:49;;;;;;;;;;;24.70;99.90;;;;;;4949500;29;19990;-58
2023/03/28 09:58:16;;;;;;;;;;;24.70;99.90;;;;;;4935060;29;20005;-58
2023/03/28 10:00:42;;;;;;;;;;;24.80;99.90;;;;;;4934955;29;19918;-59
2023/03/28 10:03:37;;;;;;;;;;;24.80;99.90;;;;;;4933773;29;19914;-56
2023/03/28 10:06:26;;;;;;;;;;;24.80;99.90;;;;;;4922440;29;19914;-56
2023/03/28 10:08:52;;;;;;;;;;;24.80;99.90;;;;;;4932190;29;19906;-58
2023/03/28 10:11:18;;;;;;;;;;;24.90;99.90;;;;;;4935108;29;19997;-59
2023/03/28 10:13:51;;;;;;;;;;;24.90;99.90;;;;;;4934434;29;19915;-60
2023/03/28 10:16:31;;;;;;;;;;;24.90;99.90;;;;;;4935106;29;19913;-56
2023/03/28 10:18:56;;;;;;;;;;;25.00;99.90;;;;;;4935559;29;19914;-58
2023/03/28 10:21:26;;;;;;;;;;;25.00;99.90;;;;;;4938502;29;19907;-58
2023/03/28 10:23:57;;;;;;;;;;;25.00;99.90;;;;;;4939063;29;19914;-58
2023/03/28 10:26:24;;;;;;;;;;;25.00;99.90;;;;;;4938637;29;19907;-58
2023/03/28 10:28:52;;;;;;;;;;;25.00;99.90;;;;;;4938679;29;20001;-58
2023/03/28 10:31:27;;;;;;;;;;;25.10;99.90;;;;;;4938668;29;19907;-58
2023/03/28 10:33:53;;;;;;;;;;;25.10;99.90;;;;;;4938370;29;19956;-58
2023/03/28 10:36:31;;;;;;;;;;;25.10;99.90;;;;;;4938579;29;19913;-58
2023/03/28 10:38:57;;;;;;;;;;;25.20;99.90;;;;;;4938586;29;19906;-58
2023/03/28 10:41:24;;;;;;;;;;;25.20;99.90;;;;;;4938306;29;19914;-59
2023/03/28 10:43:50;;;;;;;;;;;25.20;99.90;;;;;;4938430;29;19989;-57
2023/03/28 10:46:25;;;;;;;;;;;25.20;99.90;;;;;;4969005;28;19993;-57
2023/03/28 10:48:55;;;;;;;;;;;25.20;99.90;;;;;;4938137;29;19907;-57
2023/03/28 10:51:22;;;;;;;;;;;25.20;99.90;;;;;;4938185;29;20360;-58
2023/03/28 10:54:11;;;;;;;;;;;25.30;99.90;;;;;;4969062;28;19907;-58
2023/03/28 10:56:43;;;;;;;;;;;25.30;99.90;;;;;;4935382;29;20268;-57
2023/03/28 10:59:27;;;;;;;;;;;25.30;99.90;;;;;;4937673;29;19914;-58
2023/03/28 11:02:11;;;;;;;;;;;25.30;99.90;;;;;;4937103;29;19914;-57
2023/03/28 11:04:55;;;;;;;;;;;25.40;99.90;;;;;;4937489;29;19994;-56
2023/03/28 11:07:27;;;;;;;;;;;25.40;99.90;;;;;;4937651;29;20005;-57
2023/03/28 11:09:59;;;;;;;;;;;25.40;99.90;;;;;;4937658;29;20368;-58
2023/03/28 11:12:44;;;;;;;;;;;25.50;99.90;;;;;;4937601;29;19906;-57
2023/03/28 11:15:15;;;;;;;;;;;25.40;99.90;;;;;;4938037;29;19907;-58
2023/03/28 11:17:46;;;;;;;;;;;25.50;99.90;;;;;;4933373;29;19955;-58
2023/03/28 11:20:25;;;;;;;;;;;25.50;99.90;;;;;;4942618;29;19963;-58
2023/03/28 11:22:56;;;;;;;;;;;25.50;99.90;;;;;;4932144;29;19973;-59
2023/03/28 11:25:37;;;;;;;;;;;25.60;99.90;;;;;;4925667;29;20379;-57
2023/03/28 11:28:35;;;;;;;;;;;25.60;99.90;;;;;;4931569;29;19954;-59
2023/03/28 11:31:02;;;;;;;;;;;25.60;99.90;;;;;;4913521;29;19910;-64
2023/03/28 11:33:27;;;;;;;;;;;25.60;99.90;;;;;;4937437;29;20385;-60
2023/03/28 11:35:55;;;;;;;;;;;25.60;99.90;;;;;;4937517;29;19997;-59
2023/03/28 11:38:23;;;;;;;;;;;25.70;99.90;;;;;;4937606;29;19965;-59
2023/03/28 11:40:55;;;;;;;;;;;25.70;99.90;;;;;;4919076;29;19966;-56
2023/03/28 11:43:27;;;;;;;;;;;25.70;99.90;;;;;;4930670;29;19918;-55
2023/03/28 11:45:57;;;;;;;;;;;25.80;99.90;;;;;;4932354;29;19962;-59
2023/03/28 11:48:30;;;;;;;;;;;25.80;99.90;;;;;;4933538;29;20363;-57
2023/03/28 11:51:00;;;;;;;;;;;25.80;99.90;;;;;;4931892;29;19965;-60
2023/03/28 11:53:30;;;;;;;;;;;25.80;99.90;;;;;;4934117;29;20001;-56
2023/03/28 11:56:22;;;;;;;;;;;25.80;99.90;;;;;;4934692;29;19914;-57
2023/03/28 11:58:49;;;;;;;;;;;25.80;99.90;;;;;;4925860;29;19942;-58
2023/03/28 12:01:20;;;;;;;;;;;25.80;99.90;;;;;;4934476;29;19918;-58
2023/03/28 12:04:01;;;;;;;;;;;25.90;99.90;;;;;;4932064;29;19927;-59
2023/03/28 12:07:05;;;;;;;;;;;25.90;99.90;;;;;;4932967;29;19906;-58
2023/03/28 12:09:48;;;;;;;;;;;25.90;99.90;;;;;;4911443;29;19907;-56
2023/03/28 12:12:46;;;;;;;;;;;25.90;99.90;;;;;;4912130;29;19910;-56
2023/03/28 12:15:17;;;;;;;;;;;25.90;99.90;;;;;;4905218;29;19907;-58
2023/03/28 12:17:46;;;;;;;;;;;25.90;99.90;;;;;;4929237;29;20010;-58
2023/03/28 12:20:14;;;;;;;;;;;26.00;99.90;;;;;;4933720;29;20271;-58
2023/03/28 12:23:02;;;;;;;;;;;26.00;99.90;;;;;;4933236;29;19981;-57
2023/03/28 12:25:30;;;;;;;;;;;26.00;99.90;;;;;;4931657;29;19907;-56
2023/03/28 12:28:23;;;;;;;;;;;26.10;99.90;;;;;;4934475;29;19914;-58
2023/03/28 12:30:57;;;;;;;;;;;26.10;99.90;;;;;;4933938;29;19907;-56
2023/03/28 12:33:30;;;;;;;;;;;26.10;99.90;;;;;;4934331;29;19929;-57
2023/03/28 12:36:16;;;;;;;;;;;26.10;99.90;;;;;;4933690;29;19961;-57
2023/03/28 12:38:57;;;;;;;;;;;26.10;99.90;;;;;;4933522;29;19911;-58
2023/03/28 12:41:26;;;;;;;;;;;26.20;99.90;;;;;;4932280;29;19918;-57
2023/03/28 12:43:57;;;;;;;;;;;26.20;99.90;;;;;;4930982;29;19949;-54
2023/03/28 12:46:44;;;;;;;;;;;26.20;99.90;;;;;;4933880;29;20362;-58
2023/03/28 12:49:33;;;;;;;;;;;26.20;99.90;;;;;;4934199;29;19907;-58
2023/03/28 12:52:00;;;;;;;;;;;26.20;99.90;;;;;;4924208;29;19976;-57
2023/03/28 12:54:26;;;;;;;;;;;26.30;99.90;;;;;;4933708;29;19952;-56
2023/03/28 12:57:02;;;;;;;;;;;26.30;99.90;;;;;;4933645;29;19946;-57
2023/03/28 12:59:37;;;;;;;;;;;26.30;99.90;;;;;;4933782;29;20408;-56
2023/03/28 13:02:23;;;;;;;;;;;26.30;99.90;;;;;;4935384;29;19919;-56
2023/03/28 13:05:02;;;;;;;;;;;26.30;99.90;;;;;;4906388;29;19914;-57
2023/03/28 13:07:35;;;;;;;;;;;26.30;99.90;;;;;;4950617;29;19942;-55
2023/03/28 13:10:14;;;;;;;;;;;26.30;99.90;;;;;;4935347;29;19906;-56
2023/03/28 13:12:55;;;;;;;;;;;26.40;99.90;;;;;;4936097;29;19911;-56
2023/03/28 13:15:26;;;;;;;;;;;26.40;99.90;;;;;;4935940;29;19906;-56
2023/03/28 13:18:10;;;;;;;;;;;26.40;99.90;;;;;;4934673;29;19914;-56
2023/03/28 13:20:43;;;;;;;;;;;26.40;99.90;;;;;;4935935;29;20040;-57
2023/03/28 13:23:11;;;;;;;;;;;26.40;99.90;;;;;;4935470;29;19915;-56
2023/03/28 13:25:37;;;;;;;;;;;26.40;99.90;;;;;;4935878;29;19914;-56
2023/03/28 13:28:11;;;;;;;;;;;26.50;99.90;;;;;;4935880;29;19907;-56
2023/03/28 13:30:57;;;;;;;;;;;26.50;99.90;;;;;;4935881;29;19906;-57
2023/03/28 13:33:23;;;;;;;;;;;26.50;99.90;;;;;;4935549;29;19907;-55
2023/03/28 13:36:09;;;;;;;;;;;26.50;99.90;;;;;;4934484;29;20248;-58
2023/03/28 13:38:44;;;;;;;;;;;26.50;99.90;;;;;;4935650;29;20415;-58
2023/03/28 13:41:27;;;;;;;;;;;26.50;99.90;;;;;;4934556;29;19907;-56
2023/03/28 13:43:55;;;;;;;;;;;26.50;99.90;;;;;;4935784;29;19915;-56
2023/03/28 13:46:33;;;;;;;;;;;26.50;99.90;;;;;;4935490;29;19950;-55
2023/03/28 13:49:02;;;;;;;;;;;26.50;99.90;;;;;;4935495;29;19907;-57
2023/03/28 13:51:29;;;;;;;;;;;26.50;99.90;;;;;;4935482;29;19929;-58
2023/03/28 13:53:55;;;;;;;;;;;26.50;99.90;;;;;;4934925;29;19917;-56
2023/03/28 13:56:26;;;;;;;;;;;26.50;99.90;;;;;;4935618;29;19994;-56
2023/03/28 13:58:54;;;;;;;;;;;26.50;99.90;;;;;;4935340;29;19950;-56
2023/03/28 14:01:24;;;;;;;;;;;26.60;99.90;;;;;;4935292;29;20391;-57
2023/03/28 14:03:50;;;;;;;;;;;26.50;99.90;;;;;;4935373;29;19919;-56
2023/03/28 14:06:36;;;;;;;;;;;26.60;99.90;;;;;;4935484;29;19906;-56
2023/03/28 14:09:02;;;;;;;;;;;26.60;99.90;;;;;;4934870;29;19907;-58
2023/03/28 14:11:34;;;;;;;;;;;26.60;99.90;;;;;;4935300;29;20347;-56
2023/03/28 14:14:14;;;;;;;;;;;26.60;99.90;;;;;;4935319;29;19910;-56
2023/03/28 14:16:41;;;;;;;;;;;26.60;99.90;;;;;;4934111;29;20275;-57
2023/03/28 14:19:07;;;;;;;;;;;26.60;99.90;;;;;;4935345;29;19918;-56
2023/03/28 14:21:33;;;;;;;;;;;26.60;99.90;;;;;;4935209;29;19906;-57
2023/03/28 14:24:00;;;;;;;;;;;26.60;99.90;;;;;;4935242;29;20327;-57
2023/03/28 14:26:30;;;;;;;;;;;26.60;99.90;;;;;;4935145;29;20346;-57
2023/03/28 14:28:57;;;;;;;;;;;26.60;99.90;;;;;;4935083;29;19914;-57
2023/03/28 14:31:27;;;;;;;;;;;26.60;99.90;;;;;;4935038;29;19914;-57
2023/03/28 14:33:53;;;;;;;;;;;26.60;99.90;;;;;;4935155;29;19933;-58